Time;durP1;ratioP1;P1;durP2;ratioP2;P2;SDS_P1;SDS_P2;PMS_P1;PMS_P2;Temp;Humidity;BMP_temperature;BMP_pressure;BME280_temperature;BME280_humidity;BME280_pressure;Samples;Min_cycle;Max_cycle;Signal;HPM_P1;HPM_P2
2022/08/30 00:03:07;;;;;;;;;;;19.00;69.70;;;;;;5027124;28;20007;-83
2022/08/30 00:05:33;;;;;;;;;;;18.80;71.30;;;;;;5029490;28;20396;-83
2022/08/30 00:07:59;;;;;;;;;;;18.80;71.00;;;;;;5032775;28;19913;-84
2022/08/30 00:10:25;;;;;;;;;;;18.80;70.90;;;;;;5019891;28;19920;-83
2022/08/30 00:12:50;;;;;;;;;;;18.60;71.70;;;;;;5024739;28;19913;-83
2022/08/30 00:15:16;;;;;;;;;;;18.80;71.20;;;;;;5027460;28;19924;-85
2022/08/30 00:17:42;;;;;;;;;;;18.80;71.10;;;;;;5027127;28;19917;-84
2022/08/30 00:20:10;;;;;;;;;;;18.70;71.30;;;;;;5023070;28;20808;-83
2022/08/30 00:22:36;;;;;;;;;;;18.80;71.10;;;;;;5025212;28;19913;-83
2022/08/30 00:25:02;;;;;;;;;;;18.70;71.40;;;;;;5022075;28;19913;-83
2022/08/30 00:27:28;;;;;;;;;;;18.80;70.80;;;;;;5031128;28;19913;-83
2022/08/30 00:29:54;;;;;;;;;;;18.90;70.50;;;;;;5031191;28;19982;-83
2022/08/30 00:32:20;;;;;;;;;;;18.90;70.60;;;;;;5025355;28;19916;-83
2022/08/30 00:34:50;;;;;;;;;;;18.70;71.00;;;;;;5027302;28;19925;-83
2022/08/30 00:37:15;;;;;;;;;;;18.60;71.90;;;;;;5030248;28;19913;-84
2022/08/30 00:39:41;;;;;;;;;;;18.80;71.20;;;;;;5019157;28;19914;-84
2022/08/30 00:42:07;;;;;;;;;;;18.70;71.50;;;;;;5029668;28;19917;-83
2022/08/30 00:44:32;;;;;;;;;;;18.60;71.50;;;;;;5029289;28;19913;-84
2022/08/30 00:46:58;;;;;;;;;;;18.50;72.40;;;;;;5028027;28;19919;-83
2022/08/30 00:49:25;;;;;;;;;;;18.60;71.60;;;;;;5029295;28;19923;-84
2022/08/30 00:51:51;;;;;;;;;;;18.60;71.60;;;;;;5028278;28;19956;-83
2022/08/30 00:54:17;;;;;;;;;;;18.50;71.70;;;;;;5024402;28;20446;-83
2022/08/30 00:56:43;;;;;;;;;;;18.50;72.00;;;;;;5023936;28;19917;-83
2022/08/30 00:59:09;;;;;;;;;;;18.70;71.20;;;;;;5029035;28;19952;-84
2022/08/30 01:01:36;;;;;;;;;;;18.70;71.20;;;;;;5024477;28;19968;-84
2022/08/30 01:04:02;;;;;;;;;;;18.70;71.30;;;;;;5029038;28;19917;-84
2022/08/30 01:06:28;;;;;;;;;;;18.80;71.10;;;;;;5028028;28;19964;-83
2022/08/30 01:08:54;;;;;;;;;;;18.80;70.60;;;;;;5033891;28;19920;-83
2022/08/30 01:11:20;;;;;;;;;;;18.60;71.80;;;;;;5024390;28;19962;-83
2022/08/30 01:13:47;;;;;;;;;;;18.50;72.30;;;;;;5030092;28;19920;-84
2022/08/30 01:16:13;;;;;;;;;;;18.40;72.90;;;;;;5025115;28;19932;-83
2022/08/30 01:18:38;;;;;;;;;;;18.30;73.10;;;;;;5027549;28;19917;-84
2022/08/30 01:21:13;;;;;;;;;;;18.20;72.90;;;;;;5027747;28;19921;-84
2022/08/30 01:23:40;;;;;;;;;;;18.20;73.10;;;;;;5027909;28;20008;-83
2022/08/30 01:26:06;;;;;;;;;;;18.20;73.40;;;;;;5031324;28;19913;-84
2022/08/30 01:28:32;;;;;;;;;;;18.40;72.50;;;;;;5022445;28;19913;-84
2022/08/30 01:30:57;;;;;;;;;;;18.20;72.90;;;;;;5028425;28;19913;-83
2022/08/30 01:33:26;;;;;;;;;;;18.30;72.60;;;;;;5029283;28;19966;-83
2022/08/30 01:35:57;;;;;;;;;;;18.30;72.70;;;;;;5025121;28;19917;-83
2022/08/30 01:38:25;;;;;;;;;;;18.50;71.80;;;;;;5023701;28;19928;-83
2022/08/30 01:40:55;;;;;;;;;;;18.30;72.50;;;;;;5026176;28;20296;-82
2022/08/30 01:43:20;;;;;;;;;;;18.30;73.00;;;;;;5027192;28;20404;-83
2022/08/30 01:45:46;;;;;;;;;;;18.20;72.90;;;;;;5025746;28;19913;-83
2022/08/30 01:48:11;;;;;;;;;;;18.30;72.90;;;;;;5023792;28;19913;-83
2022/08/30 01:50:37;;;;;;;;;;;18.30;72.50;;;;;;5024983;28;19921;-82
2022/08/30 01:53:03;;;;;;;;;;;18.40;72.70;;;;;;5024376;28;19963;-82
2022/08/30 01:55:28;;;;;;;;;;;18.20;72.80;;;;;;5019226;28;19956;-83
2022/08/30 01:57:54;;;;;;;;;;;18.10;73.30;;;;;;5029372;28;20285;-82
2022/08/30 02:00:19;;;;;;;;;;;18.00;74.00;;;;;;5024601;28;20381;-83
2022/08/30 02:02:45;;;;;;;;;;;18.00;73.40;;;;;;5025733;28;20362;-82
2022/08/30 02:05:10;;;;;;;;;;;17.90;73.90;;;;;;5026274;28;20000;-83
2022/08/30 02:07:36;;;;;;;;;;;18.10;74.00;;;;;;5023567;28;19983;-84
2022/08/30 02:10:02;;;;;;;;;;;18.10;73.50;;;;;;5023472;28;19913;-84
2022/08/30 02:12:29;;;;;;;;;;;18.10;73.60;;;;;;5026050;28;19913;-84
2022/08/30 02:14:54;;;;;;;;;;;18.30;72.50;;;;;;5023954;28;19956;-83
2022/08/30 02:17:20;;;;;;;;;;;18.30;72.50;;;;;;5027719;28;19962;-83
2022/08/30 02:19:46;;;;;;;;;;;18.10;73.10;;;;;;5024262;28;19967;-82
2022/08/30 02:22:11;;;;;;;;;;;18.40;72.40;;;;;;5019413;28;19914;-85
2022/08/30 02:24:37;;;;;;;;;;;18.30;72.70;;;;;;5025142;28;19921;-83
2022/08/30 02:27:02;;;;;;;;;;;18.40;72.30;;;;;;5027975;28;19909;-83
2022/08/30 02:29:28;;;;;;;;;;;18.30;72.70;;;;;;5026155;28;19931;-83
2022/08/30 02:31:53;;;;;;;;;;;18.30;72.20;;;;;;5025669;28;20488;-84
2022/08/30 02:34:19;;;;;;;;;;;18.10;73.00;;;;;;5025227;28;19923;-84
2022/08/30 02:36:45;;;;;;;;;;;18.10;73.30;;;;;;5033086;28;19913;-83
2022/08/30 02:39:11;;;;;;;;;;;18.10;73.00;;;;;;5017746;28;19959;-85
2022/08/30 02:41:37;;;;;;;;;;;17.90;74.10;;;;;;5028920;28;19916;-84
2022/08/30 02:44:03;;;;;;;;;;;17.80;74.70;;;;;;5025760;28;19908;-84
2022/08/30 02:46:29;;;;;;;;;;;18.00;73.80;;;;;;5013559;28;20291;-83
2022/08/30 02:48:54;;;;;;;;;;;17.80;74.00;;;;;;5023580;28;19913;-83
2022/08/30 02:51:20;;;;;;;;;;;17.80;74.00;;;;;;5017854;28;19996;-82
2022/08/30 02:53:45;;;;;;;;;;;17.80;74.20;;;;;;5023725;28;19910;-83
2022/08/30 02:56:12;;;;;;;;;;;17.80;74.10;;;;;;5021952;28;19917;-83
2022/08/30 02:58:41;;;;;;;;;;;17.70;74.60;;;;;;5023534;28;20366;-84
2022/08/30 03:01:06;;;;;;;;;;;17.60;74.90;;;;;;5024969;28;19936;-83
2022/08/30 03:03:32;;;;;;;;;;;17.50;74.80;;;;;;5025806;28;20362;-84
2022/08/30 03:05:57;;;;;;;;;;;17.60;74.60;;;;;;5024375;28;19952;-83
2022/08/30 03:08:23;;;;;;;;;;;17.60;74.60;;;;;;5015418;28;19913;-83
2022/08/30 03:10:49;;;;;;;;;;;17.50;75.20;;;;;;5025193;28;19917;-83
2022/08/30 03:13:14;;;;;;;;;;;17.50;75.50;;;;;;5018216;28;20428;-86
2022/08/30 03:15:40;;;;;;;;;;;17.30;75.30;;;;;;5029255;28;19918;-84
2022/08/30 03:18:07;;;;;;;;;;;17.30;76.00;;;;;;5063337;22;20434;-79
2022/08/30 03:20:33;;;;;;;;;;;17.10;76.40;;;;;;5023998;28;19919;-79
2022/08/30 03:22:59;;;;;;;;;;;17.30;75.90;;;;;;5023669;28;19936;-79
2022/08/30 03:25:25;;;;;;;;;;;17.60;74.90;;;;;;5020646;28;20380;-80
2022/08/30 03:27:50;;;;;;;;;;;17.50;74.90;;;;;;5018760;28;19917;-79
2022/08/30 03:30:17;;;;;;;;;;;17.50;75.10;;;;;;5020947;28;19951;-79
2022/08/30 03:32:42;;;;;;;;;;;17.60;74.80;;;;;;5024092;28;19917;-80
2022/08/30 03:35:08;;;;;;;;;;;17.30;75.40;;;;;;5027118;28;20383;-79
2022/08/30 03:37:34;;;;;;;;;;;17.30;76.00;;;;;;5028235;28;20371;-79
2022/08/30 03:40:00;;;;;;;;;;;17.30;75.80;;;;;;5023301;28;20293;-79
2022/08/30 03:42:26;;;;;;;;;;;17.20;76.10;;;;;;5030342;28;19920;-80
2022/08/30 03:44:51;;;;;;;;;;;16.90;76.60;;;;;;5032590;28;19914;-80
2022/08/30 03:47:16;;;;;;;;;;;16.80;77.30;;;;;;5031147;28;19920;-79
2022/08/30 03:49:42;;;;;;;;;;;16.80;77.60;;;;;;5035845;28;20248;-79
2022/08/30 03:52:07;;;;;;;;;;;16.80;78.20;;;;;;5024223;28;19913;-80
2022/08/30 03:54:33;;;;;;;;;;;17.10;76.60;;;;;;5028685;28;19921;-80
2022/08/30 03:56:58;;;;;;;;;;;16.80;77.20;;;;;;5030155;28;19917;-80
2022/08/30 03:59:24;;;;;;;;;;;16.70;77.80;;;;;;5030918;28;19917;-80
2022/08/30 04:01:50;;;;;;;;;;;16.90;77.30;;;;;;5028133;28;19921;-80
2022/08/30 04:04:15;;;;;;;;;;;16.90;77.60;;;;;;5023912;28;19916;-79
2022/08/30 04:06:41;;;;;;;;;;;16.90;77.90;;;;;;5028818;28;19918;-78
2022/08/30 04:09:06;;;;;;;;;;;16.90;77.60;;;;;;5049489;28;19956;-79
2022/08/30 04:11:32;;;;;;;;;;;17.10;77.30;;;;;;5021373;28;19913;-80
2022/08/30 04:13:57;;;;;;;;;;;17.10;76.50;;;;;;5030829;28;19914;-80
2022/08/30 04:16:23;;;;;;;;;;;17.10;77.00;;;;;;5033906;28;19969;-79
2022/08/30 04:18:48;;;;;;;;;;;17.00;77.20;;;;;;5025099;28;19917;-80
2022/08/30 04:21:14;;;;;;;;;;;17.00;77.30;;;;;;5037411;28;19913;-78
2022/08/30 04:23:40;;;;;;;;;;;17.20;76.10;;;;;;5029053;28;19925;-78
2022/08/30 04:26:06;;;;;;;;;;;17.10;76.50;;;;;;5037957;28;19917;-78
2022/08/30 04:28:33;;;;;;;;;;;17.00;77.40;;;;;;5024602;28;19967;-78
2022/08/30 04:31:00;;;;;;;;;;;17.20;76.10;;;;;;5032798;28;19924;-79
2022/08/30 04:33:25;;;;;;;;;;;17.00;76.30;;;;;;5033776;28;19921;-78
2022/08/30 04:35:51;;;;;;;;;;;17.00;77.00;;;;;;5026312;28;19922;-78
2022/08/30 04:38:17;;;;;;;;;;;17.00;76.80;;;;;;5030320;28;20007;-78
2022/08/30 04:40:43;;;;;;;;;;;16.90;77.10;;;;;;5031458;28;20422;-78
2022/08/30 04:43:10;;;;;;;;;;;17.00;76.70;;;;;;5027376;28;19913;-78
2022/08/30 04:45:36;;;;;;;;;;;16.80;77.30;;;;;;5026992;28;20069;-78
2022/08/30 04:48:02;;;;;;;;;;;16.70;77.80;;;;;;5031027;28;19999;-78
2022/08/30 04:50:27;;;;;;;;;;;16.80;77.60;;;;;;5031062;28;20356;-78
2022/08/30 04:52:53;;;;;;;;;;;16.80;77.40;;;;;;5028135;28;19975;-79
2022/08/30 04:55:18;;;;;;;;;;;16.70;77.80;;;;;;5027000;28;20011;-77
2022/08/30 04:57:44;;;;;;;;;;;16.60;78.00;;;;;;5031858;28;19924;-79
2022/08/30 05:00:10;;;;;;;;;;;16.60;78.10;;;;;;5018487;28;19913;-78
2022/08/30 05:02:37;;;;;;;;;;;16.60;78.10;;;;;;5029655;28;20445;-80
2022/08/30 05:07:47;;;;;;;;;;;16.60;78.10;;;;;;5018834;28;19979;-78
2022/08/30 05:10:12;;;;;;;;;;;16.50;78.60;;;;;;5025436;28;20345;-78
2022/08/30 05:12:38;;;;;;;;;;;16.60;77.90;;;;;;5029549;28;19917;-78
2022/08/30 05:15:04;;;;;;;;;;;16.60;78.30;;;;;;5016785;28;19917;-78
2022/08/30 05:17:31;;;;;;;;;;;16.70;78.00;;;;;;5022509;28;20039;-79
2022/08/30 05:19:56;;;;;;;;;;;16.70;78.00;;;;;;5041323;28;19948;-79
2022/08/30 05:22:21;;;;;;;;;;;16.70;77.90;;;;;;5029964;28;20010;-78
2022/08/30 05:24:48;;;;;;;;;;;16.70;78.20;;;;;;5027098;28;19913;-80
2022/08/30 05:27:13;;;;;;;;;;;16.40;79.00;;;;;;5026438;28;19959;-79
2022/08/30 05:29:39;;;;;;;;;;;16.50;78.70;;;;;;5024538;28;19975;-79
2022/08/30 05:32:04;;;;;;;;;;;16.70;78.10;;;;;;5031720;28;19913;-80
2022/08/30 05:34:29;;;;;;;;;;;16.60;78.70;;;;;;5041836;28;19914;-81
2022/08/30 05:36:55;;;;;;;;;;;16.80;78.20;;;;;;5032763;28;19945;-80
2022/08/30 05:39:21;;;;;;;;;;;16.70;78.60;;;;;;5016150;28;19963;-80
2022/08/30 05:41:46;;;;;;;;;;;16.70;78.60;;;;;;5025443;28;20299;-80
2022/08/30 05:44:11;;;;;;;;;;;16.60;79.20;;;;;;5027506;28;19909;-82
2022/08/30 05:46:38;;;;;;;;;;;16.80;78.30;;;;;;5028095;28;19925;-79
2022/08/30 05:49:04;;;;;;;;;;;16.70;78.60;;;;;;5030876;28;19916;-79
2022/08/30 05:51:31;;;;;;;;;;;16.70;78.70;;;;;;5027539;28;20349;-78
2022/08/30 05:53:58;;;;;;;;;;;16.70;78.30;;;;;;5026734;28;19966;-78
2022/08/30 05:56:24;;;;;;;;;;;16.80;78.20;;;;;;5022269;28;19913;-79
2022/08/30 05:58:50;;;;;;;;;;;16.90;78.20;;;;;;5033314;28;19925;-79
2022/08/30 06:01:19;;;;;;;;;;;16.90;78.10;;;;;;5017027;28;19910;-79
2022/08/30 06:03:45;;;;;;;;;;;16.80;78.40;;;;;;5016729;28;19917;-79
2022/08/30 06:06:11;;;;;;;;;;;16.90;77.80;;;;;;5032247;28;19916;-79
2022/08/30 06:08:36;;;;;;;;;;;16.80;78.30;;;;;;5016060;28;19932;-79
2022/08/30 06:11:01;;;;;;;;;;;16.70;78.90;;;;;;5019142;28;20296;-78
2022/08/30 06:13:27;;;;;;;;;;;16.70;79.70;;;;;;5014291;28;20015;-79
2022/08/30 06:15:52;;;;;;;;;;;16.70;79.10;;;;;;5025859;28;19924;-79
2022/08/30 06:18:18;;;;;;;;;;;16.80;78.80;;;;;;5014902;28;19917;-79
2022/08/30 06:20:46;;;;;;;;;;;17.00;78.40;;;;;;5028027;28;19971;-79
2022/08/30 06:23:12;;;;;;;;;;;17.00;78.20;;;;;;5020731;28;19909;-81
2022/08/30 06:25:37;;;;;;;;;;;16.80;79.20;;;;;;5027835;28;19917;-79
2022/08/30 06:28:04;;;;;;;;;;;16.90;79.00;;;;;;5021291;28;19920;-80
2022/08/30 06:30:29;;;;;;;;;;;17.10;78.20;;;;;;5023834;28;19916;-80
2022/08/30 06:32:55;;;;;;;;;;;16.90;78.80;;;;;;5028244;28;19913;-79
2022/08/30 06:35:21;;;;;;;;;;;17.10;78.40;;;;;;5032205;28;20431;-79
2022/08/30 06:37:46;;;;;;;;;;;17.30;77.40;;;;;;5031324;28;19929;-79
2022/08/30 06:40:12;;;;;;;;;;;17.20;78.10;;;;;;5029548;28;20008;-79
2022/08/30 06:42:38;;;;;;;;;;;17.20;78.10;;;;;;5027638;28;19913;-79
2022/08/30 06:45:04;;;;;;;;;;;17.10;78.60;;;;;;5014783;28;19910;-79
2022/08/30 06:47:30;;;;;;;;;;;17.10;78.40;;;;;;5028444;28;19925;-79
2022/08/30 06:49:56;;;;;;;;;;;17.10;78.80;;;;;;5023484;28;20519;-79
2022/08/30 06:52:21;;;;;;;;;;;17.00;78.80;;;;;;5032920;28;20288;-79
2022/08/30 06:54:46;;;;;;;;;;;17.00;79.10;;;;;;5046649;28;19919;-79
2022/08/30 06:57:12;;;;;;;;;;;17.20;79.00;;;;;;5032953;28;19913;-80
2022/08/30 06:59:38;;;;;;;;;;;17.20;78.40;;;;;;5015753;28;19964;-79
2022/08/30 07:02:03;;;;;;;;;;;17.30;78.50;;;;;;5030515;28;19922;-78
2022/08/30 07:04:29;;;;;;;;;;;17.30;78.30;;;;;;5021179;28;19936;-79
2022/08/30 07:06:54;;;;;;;;;;;17.20;78.40;;;;;;5024482;28;20375;-78
2022/08/30 07:09:20;;;;;;;;;;;17.50;77.60;;;;;;5030838;28;19909;-79
2022/08/30 07:11:45;;;;;;;;;;;17.60;77.10;;;;;;5021692;28;19983;-78
2022/08/30 07:14:11;;;;;;;;;;;17.60;77.50;;;;;;5025121;28;19952;-79
2022/08/30 07:16:38;;;;;;;;;;;17.60;77.30;;;;;;5032292;28;21505;-79
2022/08/30 07:19:04;;;;;;;;;;;17.60;77.40;;;;;;5024759;28;20017;-79
2022/08/30 07:21:35;;;;;;;;;;;17.70;76.90;;;;;;5026297;28;19920;-80
2022/08/30 07:24:01;;;;;;;;;;;17.90;75.80;;;;;;5021872;28;19921;-79
2022/08/30 07:26:38;;;;;;;;;;;17.90;76.60;;;;;;5031878;28;19923;-79
2022/08/30 07:29:04;;;;;;;;;;;17.70;77.00;;;;;;5020655;28;19975;-78
2022/08/30 07:31:29;;;;;;;;;;;17.60;77.80;;;;;;5021182;28;20384;-80
2022/08/30 07:33:55;;;;;;;;;;;17.70;77.40;;;;;;5022932;28;19913;-79
2022/08/30 07:36:20;;;;;;;;;;;17.70;77.70;;;;;;5016026;28;19914;-79
2022/08/30 07:38:46;;;;;;;;;;;17.80;77.90;;;;;;5028357;28;20002;-82
2022/08/30 07:41:17;;;;;;;;;;;18.20;75.80;;;;;;5030373;28;20275;-80
2022/08/30 07:43:43;;;;;;;;;;;18.10;76.60;;;;;;5031310;28;19917;-80
2022/08/30 07:46:08;;;;;;;;;;;18.10;76.70;;;;;;5034093;28;19913;-81
2022/08/30 07:48:34;;;;;;;;;;;18.10;76.60;;;;;;5031200;28;19925;-80
2022/08/30 07:51:00;;;;;;;;;;;18.10;77.00;;;;;;5026302;28;19929;-80
2022/08/30 07:53:25;;;;;;;;;;;18.20;76.00;;;;;;5032294;28;19913;-79
2022/08/30 07:55:51;;;;;;;;;;;18.40;75.60;;;;;;5022394;28;19952;-81
2022/08/30 07:58:16;;;;;;;;;;;18.50;75.30;;;;;;5024804;28;19921;-82
2022/08/30 08:00:42;;;;;;;;;;;18.50;75.80;;;;;;5021214;28;19967;-80
2022/08/30 08:03:08;;;;;;;;;;;18.50;75.60;;;;;;5016066;28;19920;-80
2022/08/30 08:05:38;;;;;;;;;;;18.60;74.90;;;;;;5021399;28;19910;-80
2022/08/30 08:08:04;;;;;;;;;;;18.80;73.70;;;;;;5021155;28;19913;-80
2022/08/30 08:10:30;;;;;;;;;;;18.90;74.00;;;;;;5033854;28;19910;-80
2022/08/30 08:12:55;;;;;;;;;;;18.80;74.20;;;;;;5015158;28;19913;-79
2022/08/30 08:15:21;;;;;;;;;;;18.60;74.60;;;;;;5020966;28;20006;-80
2022/08/30 08:17:46;;;;;;;;;;;18.60;75.10;;;;;;5013117;28;19988;-81
2022/08/30 08:20:11;;;;;;;;;;;18.80;73.80;;;;;;5017134;28;19920;-80
2022/08/30 08:22:37;;;;;;;;;;;19.00;73.90;;;;;;5027229;28;19909;-79
2022/08/30 08:25:03;;;;;;;;;;;19.10;73.00;;;;;;5025705;28;20651;-80
2022/08/30 08:27:28;;;;;;;;;;;19.20;73.00;;;;;;5031955;28;20331;-79
2022/08/30 08:29:54;;;;;;;;;;;19.30;72.30;;;;;;5027267;28;19917;-79
2022/08/30 08:32:19;;;;;;;;;;;19.20;73.70;;;;;;5035168;28;20399;-80
2022/08/30 08:34:45;;;;;;;;;;;19.30;72.50;;;;;;5045187;28;19967;-80
2022/08/30 08:37:10;;;;;;;;;;;19.30;72.10;;;;;;5034395;28;19955;-80
2022/08/30 08:39:35;;;;;;;;;;;19.20;72.70;;;;;;5036914;28;20387;-79
2022/08/30 08:42:33;;;;;;;;;;;19.50;72.20;;;;;;5050892;28;19910;-80
2022/08/30 08:45:05;;;;;;;;;;;19.50;71.40;;;;;;5005821;28;19916;-80
2022/08/30 08:47:43;;;;;;;;;;;19.60;71.20;;;;;;5038148;28;19916;-81
2022/08/30 08:50:13;;;;;;;;;;;19.60;71.40;;;;;;5037149;28;20405;-80
2022/08/30 08:55:28;;;;;;;;;;;19.50;72.80;;;;;;5037040;28;20430;-80
2022/08/30 08:57:54;;;;;;;;;;;19.60;71.90;;;;;;5030013;28;19913;-80
2022/08/30 09:00:20;;;;;;;;;;;19.50;72.50;;;;;;5025481;28;20405;-80
2022/08/30 09:02:51;;;;;;;;;;;19.70;71.70;;;;;;5034412;28;19921;-80
2022/08/30 09:05:19;;;;;;;;;;;19.80;71.10;;;;;;5036282;28;20518;-80
2022/08/30 09:07:49;;;;;;;;;;;19.80;70.40;;;;;;5035376;28;19913;-80
2022/08/30 09:10:15;;;;;;;;;;;20.00;70.20;;;;;;5034989;28;19909;-80
2022/08/30 09:12:43;;;;;;;;;;;19.90;71.40;;;;;;5035733;28;19909;-80
2022/08/30 09:15:23;;;;;;;;;;;20.10;69.80;;;;;;5035766;28;19913;-80
2022/08/30 09:17:51;;;;;;;;;;;20.10;69.50;;;;;;5033105;28;19922;-80
2022/08/30 09:20:34;;;;;;;;;;;20.00;70.70;;;;;;5024776;28;19920;-79
2022/08/30 09:23:18;;;;;;;;;;;20.10;69.80;;;;;;5020674;28;20435;-80
2022/08/30 09:25:51;;;;;;;;;;;20.20;69.50;;;;;;5032999;28;19920;-83
2022/08/30 09:28:21;;;;;;;;;;;20.20;69.50;;;;;;5022583;28;19917;-80
2022/08/30 09:31:16;;;;;;;;;;;20.30;70.10;;;;;;5028092;28;19976;-79
2022/08/30 09:33:52;;;;;;;;;;;20.50;68.70;;;;;;5018144;28;19916;-79
2022/08/30 09:36:21;;;;;;;;;;;20.70;67.90;;;;;;5042011;28;19913;-79
2022/08/30 09:38:55;;;;;;;;;;;20.60;67.40;;;;;;5040367;28;19917;-80
2022/08/30 09:41:35;;;;;;;;;;;20.60;68.20;;;;;;5040309;28;19916;-79
2022/08/30 09:44:06;;;;;;;;;;;20.60;68.40;;;;;;5040220;28;20332;-80
2022/08/30 09:46:31;;;;;;;;;;;20.80;68.30;;;;;;5028312;28;19909;-79
2022/08/30 09:48:57;;;;;;;;;;;20.70;67.60;;;;;;5021731;28;19967;-79
2022/08/30 09:51:31;;;;;;;;;;;21.00;67.60;;;;;;5038467;28;20404;-79
2022/08/30 09:54:15;;;;;;;;;;;21.20;65.60;;;;;;5026850;28;19913;-78
2022/08/30 09:56:52;;;;;;;;;;;21.20;65.40;;;;;;5039180;28;19914;-79
2022/08/30 09:59:35;;;;;;;;;;;21.10;66.00;;;;;;5021010;28;19917;-79
2022/08/30 10:02:20;;;;;;;;;;;21.10;66.00;;;;;;5038981;28;20488;-79
2022/08/30 10:04:53;;;;;;;;;;;21.10;66.30;;;;;;5038695;28;20403;-79
2022/08/30 10:07:26;;;;;;;;;;;21.00;66.50;;;;;;5039083;28;19916;-78
2022/08/30 10:10:10;;;;;;;;;;;21.30;65.20;;;;;;5038122;28;19909;-78
2022/08/30 10:12:36;;;;;;;;;;;21.30;65.50;;;;;;5047420;28;19909;-79
2022/08/30 10:15:16;;;;;;;;;;;21.30;65.30;;;;;;5030091;28;19918;-78
2022/08/30 10:17:55;;;;;;;;;;;21.40;65.20;;;;;;5025606;28;19925;-78
2022/08/30 10:20:34;;;;;;;;;;;21.60;64.70;;;;;;5024304;28;19937;-80
2022/08/30 10:23:00;;;;;;;;;;;21.60;64.40;;;;;;5036150;28;19924;-79
2022/08/30 10:25:29;;;;;;;;;;;21.50;64.80;;;;;;5040480;28;19913;-78
2022/08/30 10:28:03;;;;;;;;;;;21.60;63.60;;;;;;5036866;28;19914;-79
2022/08/30 10:30:31;;;;;;;;;;;21.60;64.50;;;;;;5027938;28;19897;-79
2022/08/30 10:33:00;;;;;;;;;;;21.80;63.50;;;;;;5024207;28;19914;-79
2022/08/30 10:35:28;;;;;;;;;;;21.80;63.40;;;;;;5025126;28;19913;-79
2022/08/30 10:38:09;;;;;;;;;;;22.00;62.50;;;;;;5024246;28;19909;-80
2022/08/30 10:43:35;;;;;;;;;;;22.00;62.60;;;;;;5027084;28;19951;-80
2022/08/30 10:46:02;;;;;;;;;;;22.10;62.70;;;;;;5024678;28;19932;-78
2022/08/30 10:48:36;;;;;;;;;;;22.20;62.10;;;;;;5023267;28;19936;-79
2022/08/30 10:51:07;;;;;;;;;;;22.10;61.90;;;;;;5025906;28;20326;-80
2022/08/30 10:53:42;;;;;;;;;;;22.20;61.20;;;;;;5023659;28;20023;-79
2022/08/30 10:56:09;;;;;;;;;;;22.30;61.40;;;;;;5039306;28;19931;-78
2022/08/30 10:58:38;;;;;;;;;;;22.10;63.20;;;;;;5044217;28;19910;-77
2022/08/30 11:01:22;;;;;;;;;;;22.40;61.80;;;;;;5044596;28;19909;-81
2022/08/30 11:04:09;;;;;;;;;;;22.40;61.90;;;;;;5043358;28;19909;-79
2022/08/30 11:06:53;;;;;;;;;;;22.30;60.90;;;;;;5043868;28;19964;-79
2022/08/30 11:09:34;;;;;;;;;;;22.20;61.00;;;;;;5043184;28;19921;-79
2022/08/30 11:12:10;;;;;;;;;;;22.30;61.00;;;;;;5041657;28;20450;-78
2022/08/30 11:14:40;;;;;;;;;;;22.30;61.70;;;;;;5013938;28;19971;-80
2022/08/30 11:17:20;;;;;;;;;;;22.50;60.80;;;;;;5012880;28;19917;-79
2022/08/30 11:19:46;;;;;;;;;;;22.50;60.80;;;;;;5020811;28;20296;-80
2022/08/30 11:22:20;;;;;;;;;;;22.50;60.60;;;;;;5041885;28;19916;-79
2022/08/30 11:25:05;;;;;;;;;;;22.60;59.00;;;;;;5050154;28;20026;-78
2022/08/30 11:27:42;;;;;;;;;;;22.60;58.80;;;;;;5028620;28;20004;-80
2022/08/30 11:30:23;;;;;;;;;;;22.60;57.70;;;;;;5024598;28;19909;-79
2022/08/30 11:32:58;;;;;;;;;;;22.60;58.60;;;;;;5021505;28;19917;-80
2022/08/30 11:35:36;;;;;;;;;;;22.60;59.30;;;;;;5029053;28;19913;-80
2022/08/30 11:38:11;;;;;;;;;;;22.70;58.90;;;;;;5043098;28;19913;-80
2022/08/30 11:40:47;;;;;;;;;;;22.70;58.80;;;;;;5029851;28;19920;-80
2022/08/30 11:43:42;;;;;;;;;;;22.80;57.30;;;;;;5038710;28;19909;-80
2022/08/30 11:46:14;;;;;;;;;;;22.70;57.10;;;;;;5024625;28;19917;-79
2022/08/30 11:48:44;;;;;;;;;;;22.70;58.10;;;;;;5045301;28;19909;-80
2022/08/30 11:51:22;;;;;;;;;;;22.80;58.50;;;;;;5043091;28;19909;-78
2022/08/30 11:53:52;;;;;;;;;;;22.80;59.30;;;;;;5042449;28;19917;-84
2022/08/30 11:56:21;;;;;;;;;;;23.00;57.80;;;;;;5038387;28;20384;-79
2022/08/30 11:59:05;;;;;;;;;;;23.10;56.80;;;;;;5031126;28;19913;-79
2022/08/30 12:01:32;;;;;;;;;;;23.00;58.00;;;;;;5030836;28;19928;-80
2022/08/30 12:04:01;;;;;;;;;;;23.10;56.90;;;;;;5037587;28;19960;-77
2022/08/30 12:06:39;;;;;;;;;;;23.10;56.20;;;;;;5037885;28;19921;-80
2022/08/30 12:09:06;;;;;;;;;;;23.10;55.90;;;;;;5043545;28;19909;-78
2022/08/30 12:11:32;;;;;;;;;;;23.30;54.60;;;;;;5039801;28;19956;-79
2022/08/30 12:13:57;;;;;;;;;;;23.30;55.10;;;;;;5038580;28;19917;-80
2022/08/30 12:16:33;;;;;;;;;;;23.40;55.20;;;;;;5035733;28;20020;-82
2022/08/30 12:19:13;;;;;;;;;;;23.60;55.00;;;;;;5035032;28;19940;-81
2022/08/30 12:21:39;;;;;;;;;;;23.50;53.00;;;;;;5029807;28;19992;-80
2022/08/30 12:24:06;;;;;;;;;;;23.60;53.20;;;;;;5039827;28;19952;-80
2022/08/30 12:26:33;;;;;;;;;;;23.60;53.00;;;;;;5035881;28;19977;-80
2022/08/30 12:29:17;;;;;;;;;;;23.50;55.10;;;;;;5027164;28;19913;-80
2022/08/30 12:31:43;;;;;;;;;;;23.50;54.60;;;;;;5029045;28;19913;-79
2022/08/30 12:34:16;;;;;;;;;;;23.60;53.70;;;;;;5030163;28;19920;-80
2022/08/30 12:36:50;;;;;;;;;;;23.80;53.00;;;;;;5034691;28;19913;-80
2022/08/30 12:39:26;;;;;;;;;;;23.90;52.80;;;;;;5027591;28;19943;-80
2022/08/30 12:41:52;;;;;;;;;;;23.90;53.60;;;;;;5024881;28;19953;-80
2022/08/30 12:44:22;;;;;;;;;;;23.70;53.50;;;;;;5032765;28;19970;-80
2022/08/30 12:46:50;;;;;;;;;;;23.60;53.80;;;;;;5029589;28;19935;-79
2022/08/30 12:49:16;;;;;;;;;;;23.60;53.50;;;;;;5029452;28;20288;-80
2022/08/30 12:51:42;;;;;;;;;;;23.60;53.00;;;;;;5034156;28;19913;-81
2022/08/30 12:54:12;;;;;;;;;;;23.80;53.10;;;;;;5029895;28;19919;-80
2022/08/30 12:56:54;;;;;;;;;;;23.80;53.50;;;;;;5028285;28;19917;-81
2022/08/30 12:59:38;;;;;;;;;;;23.80;53.20;;;;;;5031091;28;19978;-80
2022/08/30 13:02:11;;;;;;;;;;;24.00;51.80;;;;;;5034593;28;20011;-82
2022/08/30 13:04:38;;;;;;;;;;;24.00;52.10;;;;;;5023577;28;19992;-80
2022/08/30 13:07:03;;;;;;;;;;;24.00;51.30;;;;;;5018549;28;19979;-80
2022/08/30 13:09:30;;;;;;;;;;;24.10;51.80;;;;;;5043921;28;19917;-77
2022/08/30 13:11:56;;;;;;;;;;;24.20;51.90;;;;;;5040401;28;19909;-79
2022/08/30 13:14:28;;;;;;;;;;;24.20;51.00;;;;;;5042880;28;20005;-80
2022/08/30 13:17:16;;;;;;;;;;;24.20;51.00;;;;;;5034924;28;19917;-83
2022/08/30 13:19:42;;;;;;;;;;;24.10;51.50;;;;;;5030898;28;19924;-81
2022/08/30 13:22:34;;;;;;;;;;;24.10;50.00;;;;;;5039866;28;19912;-79
2022/08/30 13:25:02;;;;;;;;;;;24.30;50.60;;;;;;5033444;28;19917;-82
2022/08/30 13:27:28;;;;;;;;;;;24.20;51.20;;;;;;5031751;28;20480;-79
2022/08/30 13:29:54;;;;;;;;;;;24.10;52.10;;;;;;5032408;28;19960;-81
2022/08/30 13:32:19;;;;;;;;;;;24.30;50.20;;;;;;5034367;28;20005;-80
2022/08/30 13:34:45;;;;;;;;;;;24.50;50.40;;;;;;5036419;28;19913;-80
2022/08/30 13:37:13;;;;;;;;;;;24.60;49.90;;;;;;5032446;28;19913;-78
2022/08/30 13:39:39;;;;;;;;;;;24.50;51.00;;;;;;5029771;28;20018;-81
2022/08/30 13:42:05;;;;;;;;;;;24.20;51.30;;;;;;5027186;28;20391;-80
2022/08/30 13:44:31;;;;;;;;;;;24.30;51.80;;;;;;5024663;28;19920;-79
2022/08/30 13:46:56;;;;;;;;;;;24.50;51.70;;;;;;5047197;28;19941;-81
2022/08/30 13:49:26;;;;;;;;;;;24.40;49.70;;;;;;5046880;28;20392;-80
2022/08/30 13:51:52;;;;;;;;;;;24.40;51.20;;;;;;5035409;28;19917;-80
2022/08/30 13:54:21;;;;;;;;;;;24.60;50.10;;;;;;5033875;28;19924;-81
2022/08/30 13:56:51;;;;;;;;;;;24.50;50.20;;;;;;5022784;28;20008;-81
2022/08/30 13:59:17;;;;;;;;;;;24.50;49.90;;;;;;5030552;28;20524;-79
2022/08/30 14:01:43;;;;;;;;;;;24.50;49.90;;;;;;5033985;28;20000;-80
2022/08/30 14:04:08;;;;;;;;;;;24.50;50.70;;;;;;5025680;28;20381;-81
2022/08/30 14:06:34;;;;;;;;;;;24.20;51.20;;;;;;5032818;28;20051;-80
2022/08/30 14:08:59;;;;;;;;;;;24.20;51.00;;;;;;5051547;28;20040;-80
2022/08/30 14:11:25;;;;;;;;;;;24.40;50.80;;;;;;5025763;28;19947;-79
2022/08/30 14:13:50;;;;;;;;;;;24.40;50.20;;;;;;5018874;28;20008;-79
2022/08/30 14:16:16;;;;;;;;;;;24.20;51.40;;;;;;5025819;28;20326;-80
2022/08/30 14:18:41;;;;;;;;;;;24.30;50.20;;;;;;5029730;28;20045;-80
2022/08/30 14:21:07;;;;;;;;;;;24.40;50.80;;;;;;5022153;28;19917;-79
2022/08/30 14:23:32;;;;;;;;;;;24.50;50.20;;;;;;5033220;28;19913;-79
2022/08/30 14:25:59;;;;;;;;;;;24.40;50.30;;;;;;5032448;28;19913;-80
2022/08/30 14:28:27;;;;;;;;;;;24.40;50.90;;;;;;5033978;28;19921;-79
2022/08/30 14:30:52;;;;;;;;;;;24.60;50.30;;;;;;5033707;28;19945;-79
2022/08/30 14:33:18;;;;;;;;;;;24.50;49.90;;;;;;5030040;28;19936;-79